Latest Weather Observations for Broken Hill Airport

IDN60801

Issued at 11:53 pm EST Friday 16 April 2021 (issued every 10 minutes, with the page automatically refreshed every 10 minutes)

About weather observations | Map of weather stations | Latest weather observations for NSW | Other Formats
Station Details ID: 047048 Name: BROKEN HILL AIRPORT AWS Lat: -32.00 Lon: 141.47 Height: 281.3 m
Data from the previous 72 hours. | See also: Recent months at Broken Hill Airport

Observations are collected in the New South Wales time zone (Eastern Standard Time) which includes daylight savings in the summer period. Therefore 'Rain since 9am' totals and other values are based on the New South Wales time zone, which may differ from local time.

Date/Time
EST
Temp
°C
App
Temp
°C
Dew
Point
°C
Rel
Hum
%
Delta-T
°C
Wind Press
QNH
hPa
Press
MSL
hPa
Rain since
9am
mm
Dir  Spd
km/h
Gust
km/h
Spd
kts
Gust
kts
16/11:30pm 12.4 8.8 3.1 53 4.2 SSW 11 13 6 7 1025.3 1024.7 0.0
16/11:00pm 14.2 10.1 4.2 51 4.6 S 15 19 8 10 1025.4 1024.8 0.0
16/10:30pm 13.9 9.7 3.9 51 4.6 S 15 19 8 10 1025.2 1024.6 0.0
16/10:00pm 13.8 9.9 3.3 49 4.8 SSW 13 17 7 9 1025.3 1024.7 0.0
16/09:30pm 13.9 9.9 3.1 48 4.9 S 13 13 7 7 1025.2 1024.6 0.0
16/09:00pm 15.1 11.2 3.3 45 5.4 S 13 17 7 9 1024.8 1024.2 0.0
16/08:30pm 15.8 11.9 3.6 44 5.7 S 13 17 7 9 1024.6 1023.9 0.0
16/08:00pm 16.7 12.4 3.4 41 6.2 SSE 15 19 8 10 1024.3 1023.6 0.0
16/07:30pm 17.7 13.1 3.6 39 6.7 S 17 20 9 11 1023.9 1023.2 0.0
16/07:00pm 18.3 13.8 4.1 39 6.8 S 17 22 9 12 1023.5 1022.8 0.0
16/06:30pm 18.3 13.4 4.1 39 6.8 S 19 24 10 13 1023.2 1022.5 0.0
16/06:00pm 18.9 13.8 3.9 37 7.2 S 20 26 11 14 1022.6 1022.0 0.0
16/05:30pm 19.5 14.1 4.4 37 7.4 SSW 22 30 12 16 1022.3 1021.7 0.0
16/05:00pm 20.1 14.5 3.3 33 8.0 S 22 30 12 16 1022.1 1021.5 0.0
16/04:30pm 20.0 13.8 4.5 36 7.6 S 26 33 14 18 1022.0 1021.4 0.0
16/04:00pm 20.1 14.3 4.6 36 7.6 S 24 35 13 19 1021.8 1021.2 0.0
16/03:30pm 20.8 15.5 4.8 35 7.9 SSW 22 35 12 19 1021.9 1021.3 0.0
16/03:00pm 20.8 15.9 5.2 36 7.8 SSW 20 28 11 15 1021.9 1021.3 0.0
16/02:30pm 19.8 15.0 4.7 37 7.4 SSE 19 32 10 17 1021.9 1021.3 0.0
16/02:00pm 20.1 15.4 5.0 37 7.4 SSE 19 33 10 18 1022.2 1021.6 0.0
16/01:30pm 19.9 14.9 4.8 37 7.4 S 20 28 11 15 1022.6 1022.0 0.0
16/01:00pm 19.6 14.9 5.3 39 7.1 S 19 33 10 18 1023.2 1022.5 0.0
16/12:30pm 19.0 14.8 5.5 41 6.7 SE 17 30 9 16 1023.7 1023.0 0.0
16/12:00pm 18.9 14.5 6.7 45 6.2 SSE 19 24 10 13 1024.0 1023.3 0.0
16/11:30am 18.0 13.5 6.8 48 5.7 SSE 20 30 11 16 1024.4 1023.7 0.0
16/11:00am 17.6 12.8 7.4 51 5.2 SSE 22 32 12 17 1024.6 1023.9 0.0
16/10:30am 16.7 11.9 7.4 54 4.7 SSE 22 30 12 16 1024.6 1023.9 0.0
16/10:00am 16.0 10.9 7.7 58 4.2 SSE 24 32 13 17 1024.6 1023.9 0.0
16/09:30am 15.0 9.9 7.8 62 3.6 SSE 24 30 13 16 1024.7 1024.1 0.0
16/09:00am 13.9 9.6 7.7 66 3.1 SSE 20 26 11 14 1024.5 1023.8 0.0
16/08:30am 12.6 8.3 6.9 68 2.8 S 19 24 10 13 1024.0 1023.3 0.0
16/08:00am 10.5 7.7 5.1 69 2.5 SSW 9 13 5 7 1023.6 1022.9 0.0
16/07:30am 8.6 5.2 3.8 72 2.1 SSW 11 15 6 8 1023.4 1022.7 0.0
16/07:00am 9.1 5.3 4.1 71 2.2 SSW 13 13 7 7 1023.1 1022.4 0.0
16/06:30am 10.6 6.9 4.7 67 2.7 S 13 15 7 8 1022.8 1022.2 0.0
16/06:00am 11.2 7.8 5.7 69 2.6 S 13 17 7 9 1022.4 1021.8 0.0
16/05:30am 11.0 7.4 5.1 67 2.7 S 13 15 7 8 1022.1 1021.5 0.0
16/05:00am 10.7 7.2 3.3 60 3.3 S 11 13 6 7 1022.0 1021.4 0.0
16/04:30am 11.6 8.5 3.6 58 3.6 S 9 11 5 6 1022.0 1021.4 0.0
16/04:00am 12.4 9.1 4.4 58 3.7 SSE 11 15 6 8 1021.6 1021.0 0.0
16/03:30am 12.6 9.2 4.1 56 3.9 SSE 11 13 6 7 1021.5 1020.8 0.0
16/03:00am 12.8 9.2 2.9 51 4.4 S 11 13 6 7 1021.3 1020.6 0.0
16/02:30am 13.3 10.4 2.5 48 4.8 SSW 7 22 4 12 1021.4 1020.7 0.0
16/02:00am 13.9 12.5 3.4 49 4.8 CALM 0 0 0 0 1021.1 1020.4 0.0
16/01:30am 13.7 12.3 3.5 50 4.7 CALM 0 0 0 0 1021.0 1020.3 0.0
16/01:00am 13.4 12.0 3.8 52 4.4 CALM 0 0 0 0 1020.8 1020.1 0.0
16/12:30am 13.2 11.6 2.7 49 4.7 CALM 0 0 0 0 1020.8 1020.1 0.0
16/12:00am 14.1 12.7 3.6 49 4.8 CALM 0 0 0 0 1020.9 1020.2 0.0
 
Date/Time
EST
Temp
°C
App
Temp
°C
Dew
Point
°C
Rel
Hum
%
Delta-T
°C
Wind Press
QNH
hPa
Press
MSL
hPa
Rain since
9am
mm
Dir  Spd
km/h
Gust
km/h
Spd
kts
Gust
kts
15/11:30pm 13.4 11.7 2.0 46 5.0 CALM 0 0 0 0 1020.9 1020.2 0.0
15/11:00pm 14.2 12.7 3.1 47 5.0 CALM 0 0 0 0 1021.0 1020.3 0.0
15/10:30pm 14.8 13.4 3.6 47 5.2 CALM 0 0 0 0 1021.3 1020.6 0.0
15/10:00pm 15.3 13.9 3.8 46 5.3 CALM 0 0 0 0 1021.5 1020.8 0.0
15/09:30pm 15.1 13.7 3.3 45 5.4 CALM 0 0 0 0 1021.2 1020.5 0.0
15/09:00pm 15.4 13.9 3.2 44 5.6 CALM 0 0 0 0 1021.1 1020.4 0.0
15/08:30pm 16.3 14.9 3.7 43 5.9 CALM 0 0 0 0 1021.2 1020.5 0.0
15/08:00pm 16.3 13.8 3.7 43 5.9 WSW 6 6 3 3 1021.0 1020.3 0.0
15/07:30pm 16.2 13.4 3.3 42 6.0 WSW 7 9 4 5 1020.7 1020.0 0.0
15/07:00pm 16.8 13.6 3.1 40 6.4 SW 9 9 5 5 1020.2 1019.5 0.0
15/06:30pm 17.5 13.7 3.8 40 6.5 SSW 13 17 7 9 1019.9 1019.2 0.0
15/06:00pm 17.7 12.7 3.6 39 6.7 SSW 19 20 10 11 1019.7 1019.0 0.0
15/05:30pm 18.1 12.8 3.2 37 7.0 SW 20 24 11 13 1019.5 1018.8 0.0
15/05:00pm 18.5 13.9 3.9 38 7.0 SW 17 22 9 12 1019.1 1018.5 0.0
15/04:30pm 18.9 14.7 3.9 37 7.2 SW 15 24 8 13 1018.6 1018.0 0.0
15/04:00pm 19.5 14.5 3.6 35 7.6 SSW 19 26 10 14 1018.6 1018.0 0.0
15/03:30pm 19.5 15.0 4.0 36 7.5 SW 17 24 9 13 1018.5 1017.9 0.0
15/03:00pm 19.4 15.3 4.4 37 7.3 SW 15 24 8 13 1018.8 1018.2 0.0
15/02:30pm 19.1 14.6 4.1 37 7.2 SSW 17 28 9 15 1018.7 1018.1 0.0
15/02:00pm 18.6 14.8 4.0 38 7.0 SW 13 22 7 12 1019.0 1018.4 0.0
15/01:30pm 18.0 13.9 4.2 40 6.6 S 15 24 8 13 1019.5 1018.8 0.0
15/01:00pm 18.5 14.4 4.3 39 6.8 S 15 24 8 13 1020.0 1019.3 0.0
15/12:30pm 18.1 15.3 5.0 42 6.4 S 9 20 5 11 1020.4 1019.7 0.0
15/12:00pm 18.3 14.1 5.8 44 6.2 SSE 17 24 9 13 1020.9 1020.2 0.0
15/11:30am 16.8 12.0 4.8 45 5.8 S 19 24 10 13 1021.1 1020.4 0.0
15/11:00am 16.8 11.6 5.4 47 5.5 S 22 32 12 17 1021.4 1020.7 0.0
15/10:30am 16.5 11.8 6.1 50 5.1 SSE 20 30 11 16 1021.6 1021.0 0.0
15/10:00am 16.4 12.0 6.5 52 4.9 SSE 19 24 10 13 1021.7 1021.1 0.0
15/09:30am 16.5 12.1 6.6 52 4.9 SE 19 24 10 13 1021.5 1020.8 0.0
15/09:00am 14.9 11.1 5.7 54 4.4 SSE 15 20 8 11 1021.5 1020.8 0.0
15/08:30am 14.4 9.9 6.0 57 4.1 SE 19 24 10 13 1021.3 1020.6 0.0
15/08:00am 13.7 9.6 6.3 61 3.6 SSE 17 20 9 11 1020.9 1020.2 0.0
15/07:30am 12.0 9.4 6.3 68 2.7 SSE 9 11 5 6 1020.5 1019.8 0.0
15/07:00am 10.8 8.5 5.6 70 2.4 SE 7 11 4 6 1020.0 1019.3 0.0
15/06:30am 11.6 8.9 5.7 67 2.8 SSE 9 11 5 6 1020.0 1019.3 0.0
15/06:00am 11.8 8.4 5.7 66 2.9 SSE 13 17 7 9 1019.6 1018.9 0.0
15/05:30am 11.5 7.9 5.2 65 2.9 S 13 15 7 8 1019.3 1018.6 0.0
15/05:00am 11.5 7.9 4.9 64 3.0 S 13 17 7 9 1019.0 1018.4 0.0
15/04:30am 11.7 7.7 4.9 63 3.2 S 15 19 8 10 1018.9 1018.3 0.0
15/04:00am 11.7 7.3 4.7 62 3.2 SSW 17 20 9 11 1019.0 1018.4 0.0
15/03:30am 12.3 7.9 5.0 61 3.4 SSW 17 20 9 11 1019.0 1018.4 0.0
15/03:00am 12.7 8.4 5.1 60 3.6 SSW 17 20 9 11 1019.0 1018.4 0.0
15/02:30am 13.2 9.3 5.4 59 3.7 SSW 15 20 8 11 1019.4 1018.7 0.0
15/02:00am 13.8 10.0 5.7 58 3.9 SSW 15 19 8 10 1019.3 1018.6 0.0
15/01:30am 13.9 10.4 5.5 57 4.0 SSW 13 17 7 9 1019.3 1018.6 0.0
15/01:00am 13.5 10.3 4.9 56 4.0 SSW 11 13 6 7 1019.1 1018.5 0.0
15/12:30am 13.7 10.7 4.3 53 4.4 SSW 9 13 5 7 1019.0 1018.4 0.0
15/12:00am 14.2 11.5 3.7 49 4.8 SSW 7 11 4 6 1019.3 1018.6 0.0
 
Date/Time
EST
Temp
°C
App
Temp
°C
Dew
Point
°C
Rel
Hum
%
Delta-T
°C
Wind Press
QNH
hPa
Press
MSL
hPa
Rain since
9am
mm
Dir  Spd
km/h
Gust
km/h
Spd
kts
Gust
kts
14/11:30pm 14.5 10.9 3.0 46 5.2 SSW 11 13 6 7 1019.3 1018.6 0.0
14/11:00pm 14.7 10.1 1.6 41 5.8 SSW 15 20 8 11 1019.1 1018.5 0.0
14/10:30pm 14.4 10.9 1.3 41 5.7 SW 9 11 5 6 1018.9 1018.3 0.0
14/10:00pm 16.1 14.3 1.4 37 6.5 CALM 0 9 0 5 1018.8 1018.2 0.0
14/09:30pm 16.4 14.6 0.9 35 6.8 CALM 0 0 0 0 1018.6 1018.0 0.0
14/09:00pm 16.8 15.0 1.3 35 6.9 CALM 0 0 0 0 1018.5 1017.9 0.0
14/08:30pm 17.7 15.9 1.2 33 7.4 CALM 0 0 0 0 1018.3 1017.6 0.0
14/08:00pm 17.6 14.7 1.2 33 7.4 SSW 6 7 3 4 1018.0 1017.3 0.0
14/07:30pm 18.3 14.8 1.3 32 7.7 SW 9 11 5 6 1017.7 1017.0 0.0
14/07:00pm 19.0 15.1 1.1 30 8.1 SSW 11 11 6 6 1017.3 1016.6 0.0
14/06:30pm 20.6 16.5 2.0 29 8.7 SSW 13 19 7 10 1017.0 1016.3 0.0
14/06:00pm 21.8 17.4 2.5 28 9.2 SSW 15 19 8 10 1016.7 1016.0 0.0
14/05:30pm 22.3 17.2 2.9 28 9.4 SSW 19 24 10 13 1016.4 1015.7 0.0
14/05:00pm 23.0 18.1 4.0 29 9.4 SSW 19 22 10 12 1016.3 1015.6 0.0
14/04:30pm 23.2 18.5 5.2 31 9.1 SW 19 28 10 15 1016.2 1015.5 0.0
14/04:00pm 22.8 18.7 6.1 34 8.6 SSW 17 22 9 12 1016.1 1015.4 0.0
14/03:30pm 23.5 19.8 6.3 33 8.9 SW 15 24 8 13 1015.9 1015.2 0.0
14/03:00pm 23.0 19.1 5.4 32 8.9 WSW 15 26 8 14 1016.1 1015.4 0.0
14/02:30pm 22.6 18.0 5.5 33 8.7 WSW 19 26 10 14 1016.2 1015.5 0.0
14/02:00pm 22.4 17.9 6.2 35 8.3 SW 19 28 10 15 1016.3 1015.6 0.0
14/01:30pm 23.0 20.2 7.1 36 8.3 SSW 11 28 6 15 1016.6 1015.9 0.0
14/01:00pm 21.6 17.6 8.1 42 7.1 SSW 19 26 10 14 1017.2 1016.5 0.0
14/12:30pm 21.0 17.7 9.6 48 6.2 SSW 17 26 9 14 1017.4 1016.7 0.0
14/12:00pm 20.4 16.2 9.6 50 5.8 SW 22 32 12 17 1017.7 1017.0 0.0
14/11:30am 20.8 17.1 10.0 50 5.9 SSW 20 30 11 16 1017.8 1017.1 0.0
14/11:00am 20.0 15.7 10.7 55 5.1 SSW 24 30 13 16 1017.8 1017.1 0.0
14/10:30am 19.2 15.5 11.5 61 4.3 SSW 22 28 12 15 1018.1 1017.4 0.0
14/10:00am 19.0 13.7 11.1 60 4.4 SSW 30 37 16 20 1017.9 1017.2 0.0
14/09:30am 19.4 13.6 7.8 47 6.0 SSW 28 37 15 20 1018.0 1017.3 0.0
14/09:00am 19.3 14.8 6.8 44 6.4 SW 20 30 11 16 1017.7 1017.0 0.0
14/08:30am 19.3 14.5 -2.3 23 9.2 W 13 17 7 9 1017.4 1016.7 0.0
14/08:00am 19.1 13.8 -3.7 21 9.4 W 15 20 8 11 1017.1 1016.4 0.0
14/07:30am 19.8 14.1 -3.8 20 9.8 W 17 24 9 13 1016.5 1015.8 0.0
14/07:00am 20.2 14.8 -4.1 19 10.0 NW 15 22 8 12 1015.9 1015.2 0.0
14/06:30am 20.3 15.2 -4.8 18 10.2 NW 13 20 7 11 1015.2 1014.5 0.0
14/06:00am 20.6 15.2 -4.5 18 10.3 NNW 15 26 8 14 1014.5 1013.8 0.0
14/05:30am 20.6 14.4 -4.5 18 10.3 NNW 19 26 10 14 1014.2 1013.5 0.0
14/05:00am 20.4 14.2 -4.7 18 10.3 NNW 19 24 10 13 1013.9 1013.2 0.0
14/04:30am 20.6 14.4 -4.5 18 10.3 NNW 19 30 10 16 1013.7 1013.0 0.0
14/04:00am 21.1 14.8 -4.1 18 10.5 NNW 20 30 11 16 1013.5 1012.8 0.0
14/03:30am 20.9 14.2 -4.3 18 10.5 NNW 22 32 12 17 1013.4 1012.7 0.0
14/03:00am 21.0 14.7 -4.2 18 10.5 NNW 20 30 11 16 1013.6 1012.9 0.0
14/02:30am 21.0 15.2 -4.2 18 10.5 N 17 24 9 13 1013.8 1013.1 0.0
14/02:00am 21.1 14.9 -4.9 17 10.7 NNW 19 28 10 15 1014.0 1013.3 0.0
14/01:30am 21.5 15.3 -4.5 17 10.8 NNW 19 33 10 18 1014.1 1013.4 0.0
14/01:00am 21.6 15.4 -4.5 17 10.9 NNW 19 28 10 15 1014.1 1013.4 0.0
14/12:30am 21.9 14.8 -4.2 17 10.9 NNW 24 35 13 19 1014.1 1013.4 0.0

Other formats

Comma delimited format used in spreadsheet applications
http://www.bom.gov.au/fwo/IDN60801/IDN60801.94691.axf

JavaScript Object Notation format (JSON) in row-major order
http://www.bom.gov.au/fwo/IDN60801/IDN60801.94691.json

Data quality

Most of these data are generated automatically and are frequently updated. Quality checks on data are not normally performed. It is possible for incorrect values to appear. Refer to information at About Latest Weather Observations and please check the disclaimer before using these data.